sensor_id;sensor_type;location;lat;lon;timestamp;P1;durP1;ratioP1;P2;durP2;ratioP2
29218;SDS011;16421;50.202;7.852;2024-02-21T00:03:28;6.28;;;2.67;;
29218;SDS011;16421;50.202;7.852;2024-02-21T00:08:31;6.80;;;2.75;;
29218;SDS011;16421;50.202;7.852;2024-02-21T00:13:35;5.18;;;3.00;;
29218;SDS011;16421;50.202;7.852;2024-02-21T00:18:39;5.95;;;2.75;;
29218;SDS011;16421;50.202;7.852;2024-02-21T00:23:42;5.13;;;2.35;;
29218;SDS011;16421;50.202;7.852;2024-02-21T00:28:46;5.53;;;2.97;;
29218;SDS011;16421;50.202;7.852;2024-02-21T00:33:51;5.47;;;3.20;;
29218;SDS011;16421;50.202;7.852;2024-02-21T00:38:55;12.43;;;5.10;;
29218;SDS011;16421;50.202;7.852;2024-02-21T00:43:58;10.40;;;4.25;;
29218;SDS011;16421;50.202;7.852;2024-02-21T00:49:02;7.10;;;3.55;;
29218;SDS011;16421;50.202;7.852;2024-02-21T00:54:06;7.47;;;3.53;;
29218;SDS011;16421;50.202;7.852;2024-02-21T00:59:09;9.52;;;4.55;;
29218;SDS011;16421;50.202;7.852;2024-02-21T01:04:14;6.63;;;3.53;;
29218;SDS011;16421;50.202;7.852;2024-02-21T01:09:17;5.22;;;3.00;;
29218;SDS011;16421;50.202;7.852;2024-02-21T01:14:20;3.35;;;1.98;;
29218;SDS011;16421;50.202;7.852;2024-02-21T01:19:25;3.95;;;2.20;;
29218;SDS011;16421;50.202;7.852;2024-02-21T01:24:28;5.20;;;2.35;;
29218;SDS011;16421;50.202;7.852;2024-02-21T01:29:31;4.45;;;2.17;;
29218;SDS011;16421;50.202;7.852;2024-02-21T01:34:36;4.30;;;1.90;;
29218;SDS011;16421;50.202;7.852;2024-02-21T01:39:39;4.38;;;2.00;;
29218;SDS011;16421;50.202;7.852;2024-02-21T01:44:42;5.18;;;2.00;;
29218;SDS011;16421;50.202;7.852;2024-02-21T01:49:47;5.18;;;2.33;;
29218;SDS011;16421;50.202;7.852;2024-02-21T01:54:51;4.30;;;1.50;;
29218;SDS011;16421;50.202;7.852;2024-02-21T01:59:54;2.05;;;1.65;;
29218;SDS011;16421;50.202;7.852;2024-02-21T02:04:59;6.13;;;2.15;;
29218;SDS011;16421;50.202;7.852;2024-02-21T02:10:03;6.22;;;2.20;;
29218;SDS011;16421;50.202;7.852;2024-02-21T02:15:08;5.97;;;2.85;;
29218;SDS011;16421;50.202;7.852;2024-02-21T02:20:13;6.28;;;3.30;;
29218;SDS011;16421;50.202;7.852;2024-02-21T02:25:19;8.25;;;2.85;;
29218;SDS011;16421;50.202;7.852;2024-02-21T02:30:22;5.13;;;2.25;;
29218;SDS011;16421;50.202;7.852;2024-02-21T02:35:26;7.10;;;3.20;;
29218;SDS011;16421;50.202;7.852;2024-02-21T02:40:31;6.35;;;2.92;;
29218;SDS011;16421;50.202;7.852;2024-02-21T02:45:35;4.85;;;2.28;;
29218;SDS011;16421;50.202;7.852;2024-02-21T02:50:38;9.25;;;3.60;;
29218;SDS011;16421;50.202;7.852;2024-02-21T02:55:43;11.45;;;4.55;;
29218;SDS011;16421;50.202;7.852;2024-02-21T03:00:47;6.00;;;2.20;;
29218;SDS011;16421;50.202;7.852;2024-02-21T03:05:50;6.20;;;2.72;;
29218;SDS011;16421;50.202;7.852;2024-02-21T03:10:55;6.75;;;2.95;;
29218;SDS011;16421;50.202;7.852;2024-02-21T03:15:58;5.18;;;1.95;;
29218;SDS011;16421;50.202;7.852;2024-02-21T03:21:02;7.47;;;2.15;;
29218;SDS011;16421;50.202;7.852;2024-02-21T03:26:06;3.08;;;1.90;;
29218;SDS011;16421;50.202;7.852;2024-02-21T03:31:10;3.55;;;1.95;;
29218;SDS011;16421;50.202;7.852;2024-02-21T03:36:14;5.95;;;2.60;;
29218;SDS011;16421;50.202;7.852;2024-02-21T03:41:19;3.95;;;2.17;;
29218;SDS011;16421;50.202;7.852;2024-02-21T03:46:23;3.30;;;1.92;;
29218;SDS011;16421;50.202;7.852;2024-02-21T03:51:27;7.57;;;3.30;;
29218;SDS011;16421;50.202;7.852;2024-02-21T03:56:31;4.85;;;2.65;;
29218;SDS011;16421;50.202;7.852;2024-02-21T04:01:35;7.18;;;2.53;;
29218;SDS011;16421;50.202;7.852;2024-02-21T04:06:45;5.03;;;2.22;;
29218;SDS011;16421;50.202;7.852;2024-02-21T04:11:50;3.58;;;1.60;;
29218;SDS011;16421;50.202;7.852;2024-02-21T04:16:53;3.88;;;1.90;;
29218;SDS011;16421;50.202;7.852;2024-02-21T04:21:57;2.45;;;1.48;;
29218;SDS011;16421;50.202;7.852;2024-02-21T04:32:08;8.98;;;3.40;;
29218;SDS011;16421;50.202;7.852;2024-02-21T04:37:11;6.18;;;2.78;;
29218;SDS011;16421;50.202;7.852;2024-02-21T04:42:16;3.67;;;1.70;;
29218;SDS011;16421;50.202;7.852;2024-02-21T04:47:19;4.28;;;1.60;;
29218;SDS011;16421;50.202;7.852;2024-02-21T04:52:24;5.00;;;1.67;;
29218;SDS011;16421;50.202;7.852;2024-02-21T04:57:29;5.63;;;2.55;;
29218;SDS011;16421;50.202;7.852;2024-02-21T05:02:32;4.07;;;1.92;;
29218;SDS011;16421;50.202;7.852;2024-02-21T05:07:36;4.13;;;1.88;;
29218;SDS011;16421;50.202;7.852;2024-02-21T05:12:40;3.00;;;1.50;;
29218;SDS011;16421;50.202;7.852;2024-02-21T05:17:44;3.33;;;1.80;;
29218;SDS011;16421;50.202;7.852;2024-02-21T05:22:47;2.88;;;1.40;;
29218;SDS011;16421;50.202;7.852;2024-02-21T05:27:52;3.95;;;1.50;;
29218;SDS011;16421;50.202;7.852;2024-02-21T05:38:00;2.13;;;1.30;;
29218;SDS011;16421;50.202;7.852;2024-02-21T05:43:08;3.80;;;1.52;;
29218;SDS011;16421;50.202;7.852;2024-02-21T05:48:11;3.38;;;1.40;;
29218;SDS011;16421;50.202;7.852;2024-02-21T05:53:15;3.53;;;1.35;;
29218;SDS011;16421;50.202;7.852;2024-02-21T05:58:19;3.30;;;1.60;;
29218;SDS011;16421;50.202;7.852;2024-02-21T06:03:23;6.82;;;2.50;;
29218;SDS011;16421;50.202;7.852;2024-02-21T06:08:26;4.07;;;1.95;;
29218;SDS011;16421;50.202;7.852;2024-02-21T06:13:30;2.30;;;1.48;;
29218;SDS011;16421;50.202;7.852;2024-02-21T06:18:34;4.40;;;2.03;;
29218;SDS011;16421;50.202;7.852;2024-02-21T06:23:39;3.05;;;1.67;;
29218;SDS011;16421;50.202;7.852;2024-02-21T06:28:43;5.35;;;1.58;;
29218;SDS011;16421;50.202;7.852;2024-02-21T06:33:48;2.80;;;1.50;;
29218;SDS011;16421;50.202;7.852;2024-02-21T06:38:51;1.80;;;1.35;;
29218;SDS011;16421;50.202;7.852;2024-02-21T06:43:55;5.20;;;1.75;;
29218;SDS011;16421;50.202;7.852;2024-02-21T06:48:59;3.92;;;1.58;;
29218;SDS011;16421;50.202;7.852;2024-02-21T06:54:03;2.22;;;1.50;;
29218;SDS011;16421;50.202;7.852;2024-02-21T06:59:07;4.63;;;1.80;;
29218;SDS011;16421;50.202;7.852;2024-02-21T07:04:11;4.73;;;1.83;;
29218;SDS011;16421;50.202;7.852;2024-02-21T07:09:15;4.40;;;1.55;;
29218;SDS011;16421;50.202;7.852;2024-02-21T07:14:19;2.25;;;2.03;;
29218;SDS011;16421;50.202;7.852;2024-02-21T07:19:22;6.80;;;2.40;;
29218;SDS011;16421;50.202;7.852;2024-02-21T07:24:26;3.65;;;1.60;;
29218;SDS011;16421;50.202;7.852;2024-02-21T07:29:30;3.85;;;1.77;;
29218;SDS011;16421;50.202;7.852;2024-02-21T07:34:34;3.97;;;1.77;;
29218;SDS011;16421;50.202;7.852;2024-02-21T07:39:38;6.97;;;2.22;;
29218;SDS011;16421;50.202;7.852;2024-02-21T07:44:42;2.92;;;1.52;;
29218;SDS011;16421;50.202;7.852;2024-02-21T07:49:46;2.60;;;1.30;;
29218;SDS011;16421;50.202;7.852;2024-02-21T07:54:50;3.67;;;1.67;;
29218;SDS011;16421;50.202;7.852;2024-02-21T07:59:55;4.07;;;1.75;;
29218;SDS011;16421;50.202;7.852;2024-02-21T08:04:58;4.35;;;1.58;;
29218;SDS011;16421;50.202;7.852;2024-02-21T08:10:02;4.00;;;1.50;;
29218;SDS011;16421;50.202;7.852;2024-02-21T08:15:09;3.47;;;1.70;;
29218;SDS011;16421;50.202;7.852;2024-02-21T08:20:13;6.30;;;2.50;;
29218;SDS011;16421;50.202;7.852;2024-02-21T08:25:17;3.13;;;2.05;;
29218;SDS011;16421;50.202;7.852;2024-02-21T08:30:21;4.18;;;1.88;;
29218;SDS011;16421;50.202;7.852;2024-02-21T08:35:25;3.47;;;1.85;;
29218;SDS011;16421;50.202;7.852;2024-02-21T08:40:28;3.60;;;1.70;;
29218;SDS011;16421;50.202;7.852;2024-02-21T08:45:32;3.17;;;1.30;;
29218;SDS011;16421;50.202;7.852;2024-02-21T08:50:36;4.90;;;1.73;;
29218;SDS011;16421;50.202;7.852;2024-02-21T08:55:39;6.22;;;2.40;;
29218;SDS011;16421;50.202;7.852;2024-02-21T09:00:44;5.22;;;1.80;;
29218;SDS011;16421;50.202;7.852;2024-02-21T09:05:47;7.55;;;2.50;;
29218;SDS011;16421;50.202;7.852;2024-02-21T09:10:50;5.30;;;2.10;;
29218;SDS011;16421;50.202;7.852;2024-02-21T09:15:55;9.50;;;3.60;;
29218;SDS011;16421;50.202;7.852;2024-02-21T09:20:59;7.57;;;3.10;;
29218;SDS011;16421;50.202;7.852;2024-02-21T09:26:02;7.70;;;3.05;;
29218;SDS011;16421;50.202;7.852;2024-02-21T09:31:07;5.28;;;2.35;;
29218;SDS011;16421;50.202;7.852;2024-02-21T09:36:10;7.22;;;2.50;;
29218;SDS011;16421;50.202;7.852;2024-02-21T09:41:15;8.05;;;3.25;;
29218;SDS011;16421;50.202;7.852;2024-02-21T09:46:24;6.85;;;2.20;;
29218;SDS011;16421;50.202;7.852;2024-02-21T09:51:33;6.55;;;2.45;;
29218;SDS011;16421;50.202;7.852;2024-02-21T09:56:38;7.97;;;2.50;;
29218;SDS011;16421;50.202;7.852;2024-02-21T10:01:43;8.15;;;2.85;;
29218;SDS011;16421;50.202;7.852;2024-02-21T10:06:48;11.30;;;3.35;;
29218;SDS011;16421;50.202;7.852;2024-02-21T10:11:51;6.53;;;2.85;;
29218;SDS011;16421;50.202;7.852;2024-02-21T10:16:57;5.78;;;2.10;;
29218;SDS011;16421;50.202;7.852;2024-02-21T10:22:01;7.05;;;2.20;;
29218;SDS011;16421;50.202;7.852;2024-02-21T10:27:06;5.18;;;1.90;;
29218;SDS011;16421;50.202;7.852;2024-02-21T10:32:13;5.90;;;2.47;;
29218;SDS011;16421;50.202;7.852;2024-02-21T10:37:17;4.93;;;2.20;;
29218;SDS011;16421;50.202;7.852;2024-02-21T10:42:21;5.70;;;2.53;;
29218;SDS011;16421;50.202;7.852;2024-02-21T10:47:26;7.07;;;2.58;;
29218;SDS011;16421;50.202;7.852;2024-02-21T10:52:37;6.07;;;2.30;;
29218;SDS011;16421;50.202;7.852;2024-02-21T10:57:49;8.38;;;2.70;;
29218;SDS011;16421;50.202;7.852;2024-02-21T11:02:55;8.40;;;2.58;;
29218;SDS011;16421;50.202;7.852;2024-02-21T11:07:59;4.97;;;1.70;;
29218;SDS011;16421;50.202;7.852;2024-02-21T11:13:06;2.70;;;1.40;;
29218;SDS011;16421;50.202;7.852;2024-02-21T11:18:11;5.63;;;1.55;;
29218;SDS011;16421;50.202;7.852;2024-02-21T11:23:25;5.88;;;1.30;;
29218;SDS011;16421;50.202;7.852;2024-02-21T11:28:28;4.53;;;1.27;;
29218;SDS011;16421;50.202;7.852;2024-02-21T11:33:34;7.55;;;2.08;;
29218;SDS011;16421;50.202;7.852;2024-02-21T11:38:38;3.13;;;1.40;;
29218;SDS011;16421;50.202;7.852;2024-02-21T11:43:42;8.77;;;1.73;;
29218;SDS011;16421;50.202;7.852;2024-02-21T11:48:47;4.75;;;2.05;;
29218;SDS011;16421;50.202;7.852;2024-02-21T11:53:52;4.43;;;1.73;;
29218;SDS011;16421;50.202;7.852;2024-02-21T11:58:58;7.97;;;1.90;;
29218;SDS011;16421;50.202;7.852;2024-02-21T12:04:03;1.85;;;1.20;;
29218;SDS011;16421;50.202;7.852;2024-02-21T12:09:07;1.67;;;1.08;;
29218;SDS011;16421;50.202;7.852;2024-02-21T12:14:15;7.68;;;2.30;;
29218;SDS011;16421;50.202;7.852;2024-02-21T12:19:20;2.58;;;1.10;;
29218;SDS011;16421;50.202;7.852;2024-02-21T12:24:24;5.85;;;1.55;;
29218;SDS011;16421;50.202;7.852;2024-02-21T12:29:28;3.85;;;1.40;;
29218;SDS011;16421;50.202;7.852;2024-02-21T12:34:32;4.70;;;2.10;;
29218;SDS011;16421;50.202;7.852;2024-02-21T12:39:38;4.15;;;1.70;;
29218;SDS011;16421;50.202;7.852;2024-02-21T12:44:41;4.00;;;1.42;;
29218;SDS011;16421;50.202;7.852;2024-02-21T12:49:46;4.57;;;1.10;;
29218;SDS011;16421;50.202;7.852;2024-02-21T12:54:49;4.20;;;1.33;;
29218;SDS011;16421;50.202;7.852;2024-02-21T12:59:55;2.30;;;1.08;;
29218;SDS011;16421;50.202;7.852;2024-02-21T13:05:00;3.28;;;1.10;;
29218;SDS011;16421;50.202;7.852;2024-02-21T13:10:04;3.30;;;1.27;;
29218;SDS011;16421;50.202;7.852;2024-02-21T13:15:08;1.67;;;0.90;;
29218;SDS011;16421;50.202;7.852;2024-02-21T13:20:14;2.95;;;1.30;;
29218;SDS011;16421;50.202;7.852;2024-02-21T13:25:18;3.58;;;1.00;;
29218;SDS011;16421;50.202;7.852;2024-02-21T13:30:22;4.82;;;2.00;;
29218;SDS011;16421;50.202;7.852;2024-02-21T13:35:27;3.70;;;1.70;;
29218;SDS011;16421;50.202;7.852;2024-02-21T13:40:33;2.72;;;1.33;;
29218;SDS011;16421;50.202;7.852;2024-02-21T13:45:36;2.28;;;1.40;;
29218;SDS011;16421;50.202;7.852;2024-02-21T13:50:40;4.13;;;1.75;;
29218;SDS011;16421;50.202;7.852;2024-02-21T13:55:45;2.93;;;1.60;;
29218;SDS011;16421;50.202;7.852;2024-02-21T14:00:48;4.22;;;2.20;;
29218;SDS011;16421;50.202;7.852;2024-02-21T14:05:53;3.28;;;1.95;;
29218;SDS011;16421;50.202;7.852;2024-02-21T14:10:56;3.03;;;1.55;;
29218;SDS011;16421;50.202;7.852;2024-02-21T14:16:01;3.80;;;2.17;;
29218;SDS011;16421;50.202;7.852;2024-02-21T14:21:06;4.45;;;2.08;;
29218;SDS011;16421;50.202;7.852;2024-02-21T14:26:11;5.53;;;2.15;;
29218;SDS011;16421;50.202;7.852;2024-02-21T14:31:15;5.25;;;2.40;;
29218;SDS011;16421;50.202;7.852;2024-02-21T14:36:20;4.20;;;2.67;;
29218;SDS011;16421;50.202;7.852;2024-02-21T14:41:25;4.38;;;1.77;;
29218;SDS011;16421;50.202;7.852;2024-02-21T14:46:29;2.97;;;1.55;;
29218;SDS011;16421;50.202;7.852;2024-02-21T14:51:33;2.45;;;1.45;;
29218;SDS011;16421;50.202;7.852;2024-02-21T14:56:37;1.95;;;1.10;;
29218;SDS011;16421;50.202;7.852;2024-02-21T15:01:41;4.03;;;1.50;;
29218;SDS011;16421;50.202;7.852;2024-02-21T15:06:45;4.32;;;1.52;;
29218;SDS011;16421;50.202;7.852;2024-02-21T15:11:49;3.55;;;1.10;;
29218;SDS011;16421;50.202;7.852;2024-02-21T15:16:53;3.50;;;1.27;;
29218;SDS011;16421;50.202;7.852;2024-02-21T15:21:57;3.80;;;1.10;;
29218;SDS011;16421;50.202;7.852;2024-02-21T15:27:01;2.50;;;0.98;;
29218;SDS011;16421;50.202;7.852;2024-02-21T15:32:05;3.50;;;1.40;;
29218;SDS011;16421;50.202;7.852;2024-02-21T15:37:10;5.05;;;1.20;;
29218;SDS011;16421;50.202;7.852;2024-02-21T15:42:16;3.42;;;1.27;;
29218;SDS011;16421;50.202;7.852;2024-02-21T15:47:20;4.15;;;1.33;;
29218;SDS011;16421;50.202;7.852;2024-02-21T15:52:26;5.15;;;1.90;;
29218;SDS011;16421;50.202;7.852;2024-02-21T15:57:29;3.40;;;1.20;;
29218;SDS011;16421;50.202;7.852;2024-02-21T16:02:35;5.43;;;1.85;;
29218;SDS011;16421;50.202;7.852;2024-02-21T16:07:40;3.07;;;1.10;;
29218;SDS011;16421;50.202;7.852;2024-02-21T16:12:43;2.75;;;1.50;;
29218;SDS011;16421;50.202;7.852;2024-02-21T16:17:47;3.60;;;1.67;;
29218;SDS011;16421;50.202;7.852;2024-02-21T16:22:51;4.88;;;1.75;;
29218;SDS011;16421;50.202;7.852;2024-02-21T16:27:55;3.60;;;2.03;;
29218;SDS011;16421;50.202;7.852;2024-02-21T16:32:58;4.57;;;1.90;;
29218;SDS011;16421;50.202;7.852;2024-02-21T16:38:03;3.25;;;1.45;;
29218;SDS011;16421;50.202;7.852;2024-02-21T16:43:06;2.92;;;1.30;;
29218;SDS011;16421;50.202;7.852;2024-02-21T16:48:09;1.60;;;1.20;;
29218;SDS011;16421;50.202;7.852;2024-02-21T16:53:15;3.75;;;1.02;;
29218;SDS011;16421;50.202;7.852;2024-02-21T16:58:18;3.60;;;1.30;;
29218;SDS011;16421;50.202;7.852;2024-02-21T17:03:21;2.60;;;1.30;;
29218;SDS011;16421;50.202;7.852;2024-02-21T17:08:26;2.47;;;1.42;;
29218;SDS011;16421;50.202;7.852;2024-02-21T17:13:29;2.65;;;1.20;;
29218;SDS011;16421;50.202;7.852;2024-02-21T17:18:33;2.03;;;1.00;;
29218;SDS011;16421;50.202;7.852;2024-02-21T17:23:38;5.85;;;1.75;;
29218;SDS011;16421;50.202;7.852;2024-02-21T17:28:42;3.28;;;1.90;;
29218;SDS011;16421;50.202;7.852;2024-02-21T17:33:47;2.63;;;1.10;;
29218;SDS011;16421;50.202;7.852;2024-02-21T17:38:52;3.30;;;1.38;;
29218;SDS011;16421;50.202;7.852;2024-02-21T17:43:55;2.63;;;1.20;;
29218;SDS011;16421;50.202;7.852;2024-02-21T17:48:58;1.98;;;1.30;;
29218;SDS011;16421;50.202;7.852;2024-02-21T17:54:03;2.85;;;1.33;;
29218;SDS011;16421;50.202;7.852;2024-02-21T17:59:07;1.63;;;1.08;;
29218;SDS011;16421;50.202;7.852;2024-02-21T18:04:10;4.30;;;1.50;;
29218;SDS011;16421;50.202;7.852;2024-02-21T18:09:15;3.33;;;1.15;;
29218;SDS011;16421;50.202;7.852;2024-02-21T18:14:18;1.55;;;0.93;;
29218;SDS011;16421;50.202;7.852;2024-02-21T18:19:22;5.65;;;1.50;;
29218;SDS011;16421;50.202;7.852;2024-02-21T18:24:27;5.40;;;1.40;;
29218;SDS011;16421;50.202;7.852;2024-02-21T18:29:31;4.73;;;1.53;;
29218;SDS011;16421;50.202;7.852;2024-02-21T18:34:37;1.67;;;1.33;;
29218;SDS011;16421;50.202;7.852;2024-02-21T18:39:42;5.00;;;1.52;;
29218;SDS011;16421;50.202;7.852;2024-02-21T18:44:46;5.93;;;1.92;;
29218;SDS011;16421;50.202;7.852;2024-02-21T18:49:51;3.20;;;1.77;;
29218;SDS011;16421;50.202;7.852;2024-02-21T18:54:56;3.83;;;1.40;;
29218;SDS011;16421;50.202;7.852;2024-02-21T19:00:00;2.95;;;1.60;;
29218;SDS011;16421;50.202;7.852;2024-02-21T19:05:08;5.07;;;1.88;;
29218;SDS011;16421;50.202;7.852;2024-02-21T19:10:13;2.30;;;1.50;;
29218;SDS011;16421;50.202;7.852;2024-02-21T19:15:17;1.70;;;1.10;;
29218;SDS011;16421;50.202;7.852;2024-02-21T19:20:20;2.50;;;1.27;;
29218;SDS011;16421;50.202;7.852;2024-02-21T19:25:27;3.90;;;1.83;;
29218;SDS011;16421;50.202;7.852;2024-02-21T19:30:30;3.10;;;1.75;;
29218;SDS011;16421;50.202;7.852;2024-02-21T19:35:34;1.75;;;1.20;;
29218;SDS011;16421;50.202;7.852;2024-02-21T19:40:38;4.15;;;1.30;;
29218;SDS011;16421;50.202;7.852;2024-02-21T19:45:43;3.10;;;1.25;;
29218;SDS011;16421;50.202;7.852;2024-02-21T19:50:47;1.15;;;1.00;;
29218;SDS011;16421;50.202;7.852;2024-02-21T19:55:52;2.40;;;0.98;;
29218;SDS011;16421;50.202;7.852;2024-02-21T20:00:56;2.53;;;1.27;;
29218;SDS011;16421;50.202;7.852;2024-02-21T20:05:59;3.47;;;1.45;;
29218;SDS011;16421;50.202;7.852;2024-02-21T20:11:04;4.05;;;1.48;;
29218;SDS011;16421;50.202;7.852;2024-02-21T20:16:08;3.20;;;1.40;;
29218;SDS011;16421;50.202;7.852;2024-02-21T20:21:11;2.60;;;1.35;;
29218;SDS011;16421;50.202;7.852;2024-02-21T20:26:16;4.07;;;1.50;;
29218;SDS011;16421;50.202;7.852;2024-02-21T20:31:19;6.03;;;2.00;;
29218;SDS011;16421;50.202;7.852;2024-02-21T20:36:22;3.10;;;1.92;;
29218;SDS011;16421;50.202;7.852;2024-02-21T20:41:27;3.22;;;1.27;;
29218;SDS011;16421;50.202;7.852;2024-02-21T20:46:30;1.33;;;0.88;;
29218;SDS011;16421;50.202;7.852;2024-02-21T20:51:34;2.95;;;1.23;;
29218;SDS011;16421;50.202;7.852;2024-02-21T20:56:39;2.25;;;1.05;;
29218;SDS011;16421;50.202;7.852;2024-02-21T21:01:42;1.98;;;1.20;;
29218;SDS011;16421;50.202;7.852;2024-02-21T21:06:47;1.73;;;1.38;;
29218;SDS011;16421;50.202;7.852;2024-02-21T21:11:52;3.42;;;1.05;;
29218;SDS011;16421;50.202;7.852;2024-02-21T21:16:56;2.70;;;1.00;;
29218;SDS011;16421;50.202;7.852;2024-02-21T21:21:59;1.05;;;0.90;;
29218;SDS011;16421;50.202;7.852;2024-02-21T21:27:04;2.72;;;1.30;;
29218;SDS011;16421;50.202;7.852;2024-02-21T21:32:07;3.33;;;1.70;;
29218;SDS011;16421;50.202;7.852;2024-02-21T21:37:10;3.13;;;1.70;;
29218;SDS011;16421;50.202;7.852;2024-02-21T21:42:15;1.70;;;1.15;;
29218;SDS011;16421;50.202;7.852;2024-02-21T21:47:18;1.73;;;0.90;;
29218;SDS011;16421;50.202;7.852;2024-02-21T21:52:22;1.40;;;0.80;;
29218;SDS011;16421;50.202;7.852;2024-02-21T21:57:26;1.80;;;0.90;;
29218;SDS011;16421;50.202;7.852;2024-02-21T22:02:30;1.17;;;1.00;;
29218;SDS011;16421;50.202;7.852;2024-02-21T22:07:34;1.00;;;0.77;;
29218;SDS011;16421;50.202;7.852;2024-02-21T22:12:38;1.13;;;0.77;;
29218;SDS011;16421;50.202;7.852;2024-02-21T22:17:42;1.60;;;0.70;;
29218;SDS011;16421;50.202;7.852;2024-02-21T22:22:45;1.63;;;1.17;;
29218;SDS011;16421;50.202;7.852;2024-02-21T22:27:50;0.90;;;0.70;;
29218;SDS011;16421;50.202;7.852;2024-02-21T22:32:53;0.80;;;0.80;;
29218;SDS011;16421;50.202;7.852;2024-02-21T22:37:56;0.85;;;0.70;;
29218;SDS011;16421;50.202;7.852;2024-02-21T22:43:01;0.85;;;0.85;;
29218;SDS011;16421;50.202;7.852;2024-02-21T22:48:05;1.02;;;0.73;;
29218;SDS011;16421;50.202;7.852;2024-02-21T22:53:08;0.60;;;0.60;;
29218;SDS011;16421;50.202;7.852;2024-02-21T22:58:13;0.88;;;0.60;;
29218;SDS011;16421;50.202;7.852;2024-02-21T23:03:16;1.80;;;0.70;;
29218;SDS011;16421;50.202;7.852;2024-02-21T23:08:21;2.15;;;0.80;;
29218;SDS011;16421;50.202;7.852;2024-02-21T23:24:28;1.55;;;0.50;;
29218;SDS011;16421;50.202;7.852;2024-02-21T23:29:31;0.50;;;0.50;;
29218;SDS011;16421;50.202;7.852;2024-02-21T23:34:34;0.40;;;0.40;;
29218;SDS011;16421;50.202;7.852;2024-02-21T23:39:39;0.55;;;0.50;;
29218;SDS011;16421;50.202;7.852;2024-02-21T23:44:43;0.50;;;0.47;;
29218;SDS011;16421;50.202;7.852;2024-02-21T23:49:46;2.05;;;0.47;;
29218;SDS011;16421;50.202;7.852;2024-02-21T23:54:51;0.50;;;0.50;;
29218;SDS011;16421;50.202;7.852;2024-02-21T23:59:54;0.40;;;0.40;;
